sensor_id;sensor_type;location;lat;lon;timestamp;temperature;humidity
11246;DHT22;59870;50.106;8.580;2023-04-24T00:00:56;16.40;84.00
11246;DHT22;59870;50.106;8.580;2023-04-24T00:03:24;16.40;83.90
11246;DHT22;59870;50.106;8.580;2023-04-24T00:05:52;16.50;84.30
11246;DHT22;59870;50.106;8.580;2023-04-24T00:08:19;16.50;83.90
11246;DHT22;59870;50.106;8.580;2023-04-24T00:10:46;16.50;84.20
11246;DHT22;59870;50.106;8.580;2023-04-24T00:13:14;16.50;84.30
11246;DHT22;59870;50.106;8.580;2023-04-24T00:15:41;16.50;83.80
11246;DHT22;59870;50.106;8.580;2023-04-24T00:18:12;17.10;84.30
11246;DHT22;59870;50.106;8.580;2023-04-24T00:20:39;16.50;84.00
11246;DHT22;59870;50.106;8.580;2023-04-24T00:23:06;16.50;84.20
11246;DHT22;59870;50.106;8.580;2023-04-24T00:25:34;16.50;84.00
11246;DHT22;59870;50.106;8.580;2023-04-24T00:28:01;16.50;83.70
11246;DHT22;59870;50.106;8.580;2023-04-24T00:30:29;16.50;83.50
11246;DHT22;59870;50.106;8.580;2023-04-24T00:32:57;16.50;84.00
11246;DHT22;59870;50.106;8.580;2023-04-24T00:35:25;16.40;84.40
11246;DHT22;59870;50.106;8.580;2023-04-24T00:37:52;16.40;84.80
11246;DHT22;59870;50.106;8.580;2023-04-24T00:40:20;16.40;85.50
11246;DHT22;59870;50.106;8.580;2023-04-24T00:42:47;16.30;85.70
11246;DHT22;59870;50.106;8.580;2023-04-24T00:45:15;16.30;86.10
11246;DHT22;59870;50.106;8.580;2023-04-24T00:47:43;16.30;86.80
11246;DHT22;59870;50.106;8.580;2023-04-24T00:50:10;16.30;86.60
11246;DHT22;59870;50.106;8.580;2023-04-24T00:52:40;16.80;87.20
11246;DHT22;59870;50.106;8.580;2023-04-24T00:55:08;16.20;86.50
11246;DHT22;59870;50.106;8.580;2023-04-24T00:57:37;16.20;86.60
11246;DHT22;59870;50.106;8.580;2023-04-24T01:00:06;16.10;87.00
11246;DHT22;59870;50.106;8.580;2023-04-24T01:02:43;16.10;87.10
11246;DHT22;59870;50.106;8.580;2023-04-24T01:05:13;16.00;87.40
11246;DHT22;59870;50.106;8.580;2023-04-24T01:07:45;16.00;87.30
11246;DHT22;59870;50.106;8.580;2023-04-24T01:10:14;16.00;87.30
11246;DHT22;59870;50.106;8.580;2023-04-24T01:12:42;16.00;87.10
11246;DHT22;59870;50.106;8.580;2023-04-24T01:15:12;15.90;87.20
11246;DHT22;59870;50.106;8.580;2023-04-24T01:17:44;15.90;87.20
11246;DHT22;59870;50.106;8.580;2023-04-24T01:20:14;15.90;87.80
11246;DHT22;59870;50.106;8.580;2023-04-24T01:22:41;15.40;86.90
11246;DHT22;59870;50.106;8.580;2023-04-24T01:25:09;15.90;87.90
11246;DHT22;59870;50.106;8.580;2023-04-24T01:27:36;15.90;87.00
11246;DHT22;59870;50.106;8.580;2023-04-24T01:30:06;15.90;87.40
11246;DHT22;59870;50.106;8.580;2023-04-24T01:32:33;15.90;87.20
11246;DHT22;59870;50.106;8.580;2023-04-24T01:35:02;15.90;87.50
11246;DHT22;59870;50.106;8.580;2023-04-24T01:37:30;15.90;87.70
11246;DHT22;59870;50.106;8.580;2023-04-24T01:39:59;15.90;87.20
11246;DHT22;59870;50.106;8.580;2023-04-24T01:42:26;15.90;87.10
11246;DHT22;59870;50.106;8.580;2023-04-24T01:44:54;15.90;86.70
11246;DHT22;59870;50.106;8.580;2023-04-24T01:47:23;15.90;86.80
11246;DHT22;59870;50.106;8.580;2023-04-24T01:49:51;15.90;87.20
11246;DHT22;59870;50.106;8.580;2023-04-24T01:52:19;15.90;86.80
11246;DHT22;59870;50.106;8.580;2023-04-24T01:54:47;16.00;86.60
11246;DHT22;59870;50.106;8.580;2023-04-24T01:57:16;15.90;86.60
11246;DHT22;59870;50.106;8.580;2023-04-24T01:59:44;15.90;87.10
11246;DHT22;59870;50.106;8.580;2023-04-24T02:02:12;15.90;87.50
11246;DHT22;59870;50.106;8.580;2023-04-24T02:04:39;15.90;87.50
11246;DHT22;59870;50.106;8.580;2023-04-24T02:07:07;15.90;87.50
11246;DHT22;59870;50.106;8.580;2023-04-24T02:09:35;15.80;87.40
11246;DHT22;59870;50.106;8.580;2023-04-24T02:12:03;15.80;87.50
11246;DHT22;59870;50.106;8.580;2023-04-24T02:14:30;15.80;87.40
11246;DHT22;59870;50.106;8.580;2023-04-24T02:16:58;15.80;87.20
11246;DHT22;59870;50.106;8.580;2023-04-24T02:19:25;15.80;87.30
11246;DHT22;59870;50.106;8.580;2023-04-24T02:21:53;16.20;88.40
11246;DHT22;59870;50.106;8.580;2023-04-24T02:24:20;15.70;87.80
11246;DHT22;59870;50.106;8.580;2023-04-24T02:26:47;15.70;87.60
11246;DHT22;59870;50.106;8.580;2023-04-24T02:29:15;15.70;87.80
11246;DHT22;59870;50.106;8.580;2023-04-24T02:31:43;15.70;88.00
11246;DHT22;59870;50.106;8.580;2023-04-24T02:34:11;15.70;88.00
11246;DHT22;59870;50.106;8.580;2023-04-24T02:36:38;15.70;88.20
11246;DHT22;59870;50.106;8.580;2023-04-24T02:39:08;15.70;88.30
11246;DHT22;59870;50.106;8.580;2023-04-24T02:41:35;15.60;88.00
11246;DHT22;59870;50.106;8.580;2023-04-24T02:44:03;15.60;88.30
11246;DHT22;59870;50.106;8.580;2023-04-24T02:46:30;15.60;88.40
11246;DHT22;59870;50.106;8.580;2023-04-24T02:48:57;15.60;88.40
11246;DHT22;59870;50.106;8.580;2023-04-24T02:51:25;15.60;88.60
11246;DHT22;59870;50.106;8.580;2023-04-24T02:53:52;15.60;88.70
11246;DHT22;59870;50.106;8.580;2023-04-24T02:56:20;15.30;88.60
11246;DHT22;59870;50.106;8.580;2023-04-24T02:58:47;15.60;88.80
11246;DHT22;59870;50.106;8.580;2023-04-24T03:01:14;15.60;88.90
11246;DHT22;59870;50.106;8.580;2023-04-24T03:03:42;15.60;89.00
11246;DHT22;59870;50.106;8.580;2023-04-24T03:06:09;15.60;88.90
11246;DHT22;59870;50.106;8.580;2023-04-24T03:08:37;15.60;89.20
11246;DHT22;59870;50.106;8.580;2023-04-24T03:11:05;15.50;89.30
11246;DHT22;59870;50.106;8.580;2023-04-24T03:13:32;15.60;89.40
11246;DHT22;59870;50.106;8.580;2023-04-24T03:16:00;15.60;89.60
11246;DHT22;59870;50.106;8.580;2023-04-24T03:18:27;15.60;89.60
11246;DHT22;59870;50.106;8.580;2023-04-24T03:20:57;15.60;89.60
11246;DHT22;59870;50.106;8.580;2023-04-24T03:23:25;15.60;89.40
11246;DHT22;59870;50.106;8.580;2023-04-24T03:25:52;15.60;89.30
11246;DHT22;59870;50.106;8.580;2023-04-24T03:28:20;16.00;89.40
11246;DHT22;59870;50.106;8.580;2023-04-24T03:31:03;15.60;89.10
11246;DHT22;59870;50.106;8.580;2023-04-24T03:33:34;15.60;89.10
11246;DHT22;59870;50.106;8.580;2023-04-24T03:36:03;15.60;89.20
11246;DHT22;59870;50.106;8.580;2023-04-24T03:38:38;15.60;88.80
11246;DHT22;59870;50.106;8.580;2023-04-24T03:41:41;15.60;88.90
11246;DHT22;59870;50.106;8.580;2023-04-24T03:44:17;15.70;89.20
11246;DHT22;59870;50.106;8.580;2023-04-24T03:46:45;15.60;88.90
11246;DHT22;59870;50.106;8.580;2023-04-24T03:49:12;15.60;89.20
11246;DHT22;59870;50.106;8.580;2023-04-24T03:51:43;15.60;89.50
11246;DHT22;59870;50.106;8.580;2023-04-24T03:54:20;15.60;89.30
11246;DHT22;59870;50.106;8.580;2023-04-24T03:56:49;15.60;89.20
11246;DHT22;59870;50.106;8.580;2023-04-24T03:59:16;15.60;89.50
11246;DHT22;59870;50.106;8.580;2023-04-24T04:01:48;15.60;89.70
11246;DHT22;59870;50.106;8.580;2023-04-24T04:04:17;15.60;89.70
11246;DHT22;59870;50.106;8.580;2023-04-24T04:06:45;15.60;89.80
11246;DHT22;59870;50.106;8.580;2023-04-24T04:09:14;15.60;89.80
11246;DHT22;59870;50.106;8.580;2023-04-24T04:11:42;15.60;90.00
11246;DHT22;59870;50.106;8.580;2023-04-24T04:14:09;15.80;90.00
11246;DHT22;59870;50.106;8.580;2023-04-24T04:16:40;15.60;90.00
11246;DHT22;59870;50.106;8.580;2023-04-24T04:19:08;15.60;87.10
11246;DHT22;59870;50.106;8.580;2023-04-24T04:21:41;15.50;85.20
11246;DHT22;59870;50.106;8.580;2023-04-24T04:24:44;15.50;83.80
11246;DHT22;59870;50.106;8.580;2023-04-24T04:27:16;15.50;82.50
11246;DHT22;59870;50.106;8.580;2023-04-24T04:29:52;15.40;82.80
11246;DHT22;59870;50.106;8.580;2023-04-24T04:32:20;15.40;82.80
11246;DHT22;59870;50.106;8.580;2023-04-24T04:34:47;15.40;82.60
11246;DHT22;59870;50.106;8.580;2023-04-24T04:37:16;15.30;82.90
11246;DHT22;59870;50.106;8.580;2023-04-24T04:39:58;15.20;82.70
11246;DHT22;59870;50.106;8.580;2023-04-24T04:42:53;15.80;83.00
11246;DHT22;59870;50.106;8.580;2023-04-24T04:45:22;15.20;81.40
11246;DHT22;59870;50.106;8.580;2023-04-24T04:48:11;15.20;80.60
11246;DHT22;59870;50.106;8.580;2023-04-24T04:50:41;15.20;80.40
11246;DHT22;59870;50.106;8.580;2023-04-24T04:53:10;15.20;80.60
11246;DHT22;59870;50.106;8.580;2023-04-24T04:55:39;15.10;80.40
11246;DHT22;59870;50.106;8.580;2023-04-24T05:10:17;15.00;80.40
11246;DHT22;59870;50.106;8.580;2023-04-24T05:12:46;15.00;80.30
11246;DHT22;59870;50.106;8.580;2023-04-24T05:15:13;15.10;80.70
11246;DHT22;59870;50.106;8.580;2023-04-24T05:17:44;15.10;80.90
11246;DHT22;59870;50.106;8.580;2023-04-24T05:20:14;15.10;80.80
11246;DHT22;59870;50.106;8.580;2023-04-24T05:22:46;15.10;80.40
11246;DHT22;59870;50.106;8.580;2023-04-24T05:25:17;15.60;80.00
11246;DHT22;59870;50.106;8.580;2023-04-24T05:47:19;16.20;73.60
11246;DHT22;59870;50.106;8.580;2023-04-24T05:49:56;16.70;71.20
11246;DHT22;59870;50.106;8.580;2023-04-24T06:11:24;16.40;69.60
11246;DHT22;59870;50.106;8.580;2023-04-24T06:13:52;16.50;69.50
11246;DHT22;59870;50.106;8.580;2023-04-24T06:16:46;16.40;69.20
11246;DHT22;59870;50.106;8.580;2023-04-24T06:22:56;16.40;69.60
11246;DHT22;59870;50.106;8.580;2023-04-24T06:25:28;16.40;69.30
11246;DHT22;59870;50.106;8.580;2023-04-24T06:27:55;16.30;69.70
11246;DHT22;59870;50.106;8.580;2023-04-24T06:30:23;16.40;69.70
11246;DHT22;59870;50.106;8.580;2023-04-24T06:39:12;16.50;69.60
11246;DHT22;59870;50.106;8.580;2023-04-24T06:41:40;16.50;68.30
11246;DHT22;59870;50.106;8.580;2023-04-24T06:50:11;16.60;69.00
11246;DHT22;59870;50.106;8.580;2023-04-24T06:52:40;16.90;68.60
11246;DHT22;59870;50.106;8.580;2023-04-24T06:55:08;17.40;70.10
11246;DHT22;59870;50.106;8.580;2023-04-24T07:00:36;17.70;69.50
11246;DHT22;59870;50.106;8.580;2023-04-24T07:03:04;18.50;68.20
11246;DHT22;59870;50.106;8.580;2023-04-24T07:11:52;18.90;66.90
11246;DHT22;59870;50.106;8.580;2023-04-24T07:14:20;19.50;64.70
11246;DHT22;59870;50.106;8.580;2023-04-24T07:16:48;19.70;64.70
11246;DHT22;59870;50.106;8.580;2023-04-24T07:19:19;20.60;65.60
11246;DHT22;59870;50.106;8.580;2023-04-24T07:21:46;20.30;64.00
11246;DHT22;59870;50.106;8.580;2023-04-24T07:24:14;20.40;61.30
11246;DHT22;59870;50.106;8.580;2023-04-24T07:26:42;20.60;60.00
11246;DHT22;59870;50.106;8.580;2023-04-24T07:29:10;21.00;61.90
11246;DHT22;59870;50.106;8.580;2023-04-24T07:31:38;20.70;61.10
11246;DHT22;59870;50.106;8.580;2023-04-24T07:34:05;21.20;61.60
11246;DHT22;59870;50.106;8.580;2023-04-24T07:36:32;21.30;60.60
11246;DHT22;59870;50.106;8.580;2023-04-24T07:39:00;20.90;59.30
11246;DHT22;59870;50.106;8.580;2023-04-24T07:41:27;20.90;60.10
11246;DHT22;59870;50.106;8.580;2023-04-24T07:43:55;21.10;60.70
11246;DHT22;59870;50.106;8.580;2023-04-24T07:46:22;21.30;60.00
11246;DHT22;59870;50.106;8.580;2023-04-24T07:48:50;21.60;59.40
11246;DHT22;59870;50.106;8.580;2023-04-24T07:51:38;21.90;57.80
11246;DHT22;59870;50.106;8.580;2023-04-24T07:54:06;22.80;57.90
11246;DHT22;59870;50.106;8.580;2023-04-24T07:56:33;23.00;57.50
11246;DHT22;59870;50.106;8.580;2023-04-24T07:59:01;22.70;56.60
11246;DHT22;59870;50.106;8.580;2023-04-24T08:01:29;22.80;54.70
11246;DHT22;59870;50.106;8.580;2023-04-24T08:03:56;22.90;54.60
11246;DHT22;59870;50.106;8.580;2023-04-24T08:06:24;23.00;54.40
11246;DHT22;59870;50.106;8.580;2023-04-24T08:08:55;23.40;54.40
11246;DHT22;59870;50.106;8.580;2023-04-24T08:11:22;23.50;53.30
11246;DHT22;59870;50.106;8.580;2023-04-24T08:13:51;23.60;53.10
11246;DHT22;59870;50.106;8.580;2023-04-24T08:16:18;23.40;52.70
11246;DHT22;59870;50.106;8.580;2023-04-24T08:18:46;23.70;51.40
11246;DHT22;59870;50.106;8.580;2023-04-24T08:21:13;23.90;52.10
11246;DHT22;59870;50.106;8.580;2023-04-24T08:23:44;24.20;52.20
11246;DHT22;59870;50.106;8.580;2023-04-24T08:26:13;24.50;50.00
11246;DHT22;59870;50.106;8.580;2023-04-24T08:28:40;24.70;49.50
11246;DHT22;59870;50.106;8.580;2023-04-24T08:31:08;25.00;49.50
11246;DHT22;59870;50.106;8.580;2023-04-24T08:33:35;25.40;49.50
11246;DHT22;59870;50.106;8.580;2023-04-24T08:36:04;26.10;47.60
11246;DHT22;59870;50.106;8.580;2023-04-24T08:38:31;25.90;47.10
11246;DHT22;59870;50.106;8.580;2023-04-24T08:41:00;26.50;47.10
11246;DHT22;59870;50.106;8.580;2023-04-24T08:43:28;26.50;45.70
11246;DHT22;59870;50.106;8.580;2023-04-24T08:45:57;26.80;44.70
11246;DHT22;59870;50.106;8.580;2023-04-24T08:48:26;26.20;44.70
11246;DHT22;59870;50.106;8.580;2023-04-24T08:50:58;26.10;44.10
11246;DHT22;59870;50.106;8.580;2023-04-24T08:53:26;26.40;45.40
11246;DHT22;59870;50.106;8.580;2023-04-24T08:55:55;25.70;44.20
11246;DHT22;59870;50.106;8.580;2023-04-24T08:58:28;25.90;45.30
11246;DHT22;59870;50.106;8.580;2023-04-24T09:00:55;25.00;45.00
11246;DHT22;59870;50.106;8.580;2023-04-24T09:03:23;24.70;45.50
11246;DHT22;59870;50.106;8.580;2023-04-24T09:05:52;24.40;46.20
11246;DHT22;59870;50.106;8.580;2023-04-24T09:08:24;24.10;47.10
11246;DHT22;59870;50.106;8.580;2023-04-24T09:10:52;24.40;48.20
11246;DHT22;59870;50.106;8.580;2023-04-24T09:13:22;23.60;48.30
11246;DHT22;59870;50.106;8.580;2023-04-24T09:15:50;23.40;48.50
11246;DHT22;59870;50.106;8.580;2023-04-24T09:18:17;23.10;49.30
11246;DHT22;59870;50.106;8.580;2023-04-24T09:21:07;23.50;50.70
11246;DHT22;59870;50.106;8.580;2023-04-24T09:23:35;22.60;50.30
11246;DHT22;59870;50.106;8.580;2023-04-24T09:26:03;22.40;50.40
11246;DHT22;59870;50.106;8.580;2023-04-24T09:28:38;22.20;51.10
11246;DHT22;59870;50.106;8.580;2023-04-24T09:31:12;22.00;51.50
11246;DHT22;59870;50.106;8.580;2023-04-24T09:33:54;21.90;51.70
11246;DHT22;59870;50.106;8.580;2023-04-24T09:36:29;21.70;51.50
11246;DHT22;59870;50.106;8.580;2023-04-24T09:39:00;21.50;52.10
11246;DHT22;59870;50.106;8.580;2023-04-24T09:41:28;21.50;52.30
11246;DHT22;59870;50.106;8.580;2023-04-24T09:44:16;21.10;53.00
11246;DHT22;59870;50.106;8.580;2023-04-24T09:46:48;21.50;54.00
11246;DHT22;59870;50.106;8.580;2023-04-24T09:49:21;21.40;53.50
11246;DHT22;59870;50.106;8.580;2023-04-24T09:51:49;20.70;53.20
11246;DHT22;59870;50.106;8.580;2023-04-24T09:54:19;20.50;54.20
11246;DHT22;59870;50.106;8.580;2023-04-24T09:56:49;20.40;54.20
11246;DHT22;59870;50.106;8.580;2023-04-24T09:59:19;20.20;54.90
11246;DHT22;59870;50.106;8.580;2023-04-24T10:01:46;20.10;55.70
11246;DHT22;59870;50.106;8.580;2023-04-24T10:04:23;20.00;56.10
11246;DHT22;59870;50.106;8.580;2023-04-24T10:06:53;19.90;55.80
11246;DHT22;59870;50.106;8.580;2023-04-24T10:09:23;19.90;57.00
11246;DHT22;59870;50.106;8.580;2023-04-24T10:11:54;20.50;57.50
11246;DHT22;59870;50.106;8.580;2023-04-24T10:14:23;19.90;57.40
11246;DHT22;59870;50.106;8.580;2023-04-24T10:16:53;19.90;57.80
11246;DHT22;59870;50.106;8.580;2023-04-24T10:19:25;19.80;58.10
11246;DHT22;59870;50.106;8.580;2023-04-24T10:21:53;20.40;60.00
11246;DHT22;59870;50.106;8.580;2023-04-24T10:24:22;20.30;60.80
11246;DHT22;59870;50.106;8.580;2023-04-24T10:26:50;19.60;61.60
11246;DHT22;59870;50.106;8.580;2023-04-24T10:29:19;19.50;63.40
11246;DHT22;59870;50.106;8.580;2023-04-24T10:31:46;19.80;64.50
11246;DHT22;59870;50.106;8.580;2023-04-24T10:34:16;19.40;66.40
11246;DHT22;59870;50.106;8.580;2023-04-24T10:36:50;19.30;67.80
11246;DHT22;59870;50.106;8.580;2023-04-24T10:39:19;19.40;67.10
11246;DHT22;59870;50.106;8.580;2023-04-24T10:41:55;19.60;67.80
11246;DHT22;59870;50.106;8.580;2023-04-24T10:44:25;19.70;67.50
11246;DHT22;59870;50.106;8.580;2023-04-24T10:46:55;19.20;66.70
11246;DHT22;59870;50.106;8.580;2023-04-24T10:49:29;19.20;65.60
11246;DHT22;59870;50.106;8.580;2023-04-24T10:52:01;19.20;65.90
11246;DHT22;59870;50.106;8.580;2023-04-24T11:08:48;18.80;68.90
11246;DHT22;59870;50.106;8.580;2023-04-24T11:11:17;18.80;69.10
11246;DHT22;59870;50.106;8.580;2023-04-24T11:18:52;19.10;68.20
11246;DHT22;59870;50.106;8.580;2023-04-24T11:21:32;19.90;69.00
11246;DHT22;59870;50.106;8.580;2023-04-24T11:24:33;19.70;67.10
11246;DHT22;59870;50.106;8.580;2023-04-24T11:27:16;19.30;67.00
11246;DHT22;59870;50.106;8.580;2023-04-24T11:29:47;19.80;65.90
11246;DHT22;59870;50.106;8.580;2023-04-24T11:32:26;19.60;66.80
11246;DHT22;59870;50.106;8.580;2023-04-24T11:35:01;19.50;66.00
11246;DHT22;59870;50.106;8.580;2023-04-24T11:37:38;19.60;66.10
11246;DHT22;59870;50.106;8.580;2023-04-24T11:40:08;19.70;64.90
11246;DHT22;59870;50.106;8.580;2023-04-24T11:42:43;19.70;64.80
11246;DHT22;59870;50.106;8.580;2023-04-24T11:45:13;19.90;66.10
11246;DHT22;59870;50.106;8.580;2023-04-24T11:47:43;20.00;66.00
11246;DHT22;59870;50.106;8.580;2023-04-24T11:50:13;20.70;63.70
11246;DHT22;59870;50.106;8.580;2023-04-24T11:52:45;20.20;62.20
11246;DHT22;59870;50.106;8.580;2023-04-24T11:57:48;20.70;61.20
11246;DHT22;59870;50.106;8.580;2023-04-24T12:00:18;20.30;60.00
11246;DHT22;59870;50.106;8.580;2023-04-24T12:02:47;20.30;59.70
11246;DHT22;59870;50.106;8.580;2023-04-24T12:05:25;20.20;59.80
11246;DHT22;59870;50.106;8.580;2023-04-24T12:07:55;20.10;58.00
11246;DHT22;59870;50.106;8.580;2023-04-24T12:10:26;20.40;58.10
11246;DHT22;59870;50.106;8.580;2023-04-24T12:12:59;20.00;59.30
11246;DHT22;59870;50.106;8.580;2023-04-24T12:18:45;19.70;66.00
11246;DHT22;59870;50.106;8.580;2023-04-24T12:21:21;19.50;65.10
11246;DHT22;59870;50.106;8.580;2023-04-24T12:23:49;18.80;65.60
11246;DHT22;59870;50.106;8.580;2023-04-24T13:08:54;19.00;68.40
11246;DHT22;59870;50.106;8.580;2023-04-24T13:11:22;19.40;65.30
11246;DHT22;59870;50.106;8.580;2023-04-24T13:17:00;19.00;64.00
11246;DHT22;59870;50.106;8.580;2023-04-24T13:19:28;19.10;63.40
11246;DHT22;59870;50.106;8.580;2023-04-24T13:21:57;19.10;61.70
11246;DHT22;59870;50.106;8.580;2023-04-24T13:30:39;19.30;60.20
11246;DHT22;59870;50.106;8.580;2023-04-24T13:33:07;19.30;58.10
11246;DHT22;59870;50.106;8.580;2023-04-24T13:35:34;20.00;59.50
11246;DHT22;59870;50.106;8.580;2023-04-24T13:41:12;19.30;58.30
11246;DHT22;59870;50.106;8.580;2023-04-24T13:49:53;19.40;58.80
11246;DHT22;59870;50.106;8.580;2023-04-24T13:52:21;19.40;58.70
11246;DHT22;59870;50.106;8.580;2023-04-24T13:54:49;19.90;57.90
11246;DHT22;59870;50.106;8.580;2023-04-24T13:57:16;19.50;57.30
11246;DHT22;59870;50.106;8.580;2023-04-24T13:59:45;19.50;58.30
11246;DHT22;59870;50.106;8.580;2023-04-24T14:02:13;19.50;57.30
11246;DHT22;59870;50.106;8.580;2023-04-24T14:04:54;19.10;57.60
11246;DHT22;59870;50.106;8.580;2023-04-24T14:07:21;19.40;58.70
11246;DHT22;59870;50.106;8.580;2023-04-24T14:09:49;19.40;59.80
11246;DHT22;59870;50.106;8.580;2023-04-24T14:12:17;19.30;59.40
11246;DHT22;59870;50.106;8.580;2023-04-24T14:14:47;19.20;58.60
11246;DHT22;59870;50.106;8.580;2023-04-24T14:20:19;19.20;58.90
11246;DHT22;59870;50.106;8.580;2023-04-24T14:22:46;19.50;60.80
11246;DHT22;59870;50.106;8.580;2023-04-24T14:44:58;19.00;59.00
11246;DHT22;59870;50.106;8.580;2023-04-24T14:47:26;19.00;58.50
11246;DHT22;59870;50.106;8.580;2023-04-24T14:49:54;18.90;62.50
11246;DHT22;59870;50.106;8.580;2023-04-24T14:52:21;18.90;64.80
11246;DHT22;59870;50.106;8.580;2023-04-24T14:54:53;18.80;65.00
11246;DHT22;59870;50.106;8.580;2023-04-24T14:57:25;18.70;63.70
11246;DHT22;59870;50.106;8.580;2023-04-24T14:59:53;18.70;63.40
11246;DHT22;59870;50.106;8.580;2023-04-24T15:02:20;19.20;64.00
11246;DHT22;59870;50.106;8.580;2023-04-24T15:04:49;18.90;63.10
11246;DHT22;59870;50.106;8.580;2023-04-24T15:07:17;18.90;61.70
11246;DHT22;59870;50.106;8.580;2023-04-24T15:09:44;19.30;61.80
11246;DHT22;59870;50.106;8.580;2023-04-24T15:12:15;18.90;62.20
11246;DHT22;59870;50.106;8.580;2023-04-24T15:17:59;18.80;59.40
11246;DHT22;59870;50.106;8.580;2023-04-24T15:33:01;18.80;59.00
11246;DHT22;59870;50.106;8.580;2023-04-24T15:44:52;18.80;58.80
11246;DHT22;59870;50.106;8.580;2023-04-24T15:47:20;18.70;59.40
11246;DHT22;59870;50.106;8.580;2023-04-24T15:49:47;19.20;59.80
11246;DHT22;59870;50.106;8.580;2023-04-24T16:02:14;18.60;59.50
11246;DHT22;59870;50.106;8.580;2023-04-24T16:04:50;18.70;60.30
11246;DHT22;59870;50.106;8.580;2023-04-24T16:07:27;18.60;59.40
11246;DHT22;59870;50.106;8.580;2023-04-24T16:10:02;18.90;60.80
11246;DHT22;59870;50.106;8.580;2023-04-24T16:12:34;18.70;59.30
11246;DHT22;59870;50.106;8.580;2023-04-24T16:15:10;19.10;58.40
11246;DHT22;59870;50.106;8.580;2023-04-24T16:17:44;18.70;59.00
11246;DHT22;59870;50.106;8.580;2023-04-24T16:20:20;19.40;58.50
11246;DHT22;59870;50.106;8.580;2023-04-24T16:45:37;18.50;59.40
11246;DHT22;59870;50.106;8.580;2023-04-24T16:48:04;18.90;59.00
11246;DHT22;59870;50.106;8.580;2023-04-24T16:50:32;18.70;58.80
11246;DHT22;59870;50.106;8.580;2023-04-24T16:52:59;18.50;59.50
11246;DHT22;59870;50.106;8.580;2023-04-24T16:55:27;18.50;58.50
11246;DHT22;59870;50.106;8.580;2023-04-24T16:57:54;18.60;59.30
11246;DHT22;59870;50.106;8.580;2023-04-24T17:00:25;18.50;58.70
11246;DHT22;59870;50.106;8.580;2023-04-24T17:02:53;18.50;58.30
11246;DHT22;59870;50.106;8.580;2023-04-24T17:05:20;18.50;58.20
11246;DHT22;59870;50.106;8.580;2023-04-24T17:07:52;19.20;59.40
11246;DHT22;59870;50.106;8.580;2023-04-24T17:10:19;18.50;58.10
11246;DHT22;59870;50.106;8.580;2023-04-24T17:12:47;18.50;58.90
11246;DHT22;59870;50.106;8.580;2023-04-24T17:15:14;18.50;58.20
11246;DHT22;59870;50.106;8.580;2023-04-24T17:17:42;18.60;58.00
11246;DHT22;59870;50.106;8.580;2023-04-24T17:20:11;18.80;58.50
11246;DHT22;59870;50.106;8.580;2023-04-24T17:22:49;18.50;58.60
11246;DHT22;59870;50.106;8.580;2023-04-24T17:25:17;19.00;58.90
11246;DHT22;59870;50.106;8.580;2023-04-24T17:27:45;18.50;58.00
11246;DHT22;59870;50.106;8.580;2023-04-24T17:30:13;18.60;58.40
11246;DHT22;59870;50.106;8.580;2023-04-24T17:32:40;18.50;58.00
11246;DHT22;59870;50.106;8.580;2023-04-24T17:35:08;18.80;58.20
11246;DHT22;59870;50.106;8.580;2023-04-24T17:37:37;18.20;57.80
11246;DHT22;59870;50.106;8.580;2023-04-24T18:02:27;18.10;58.60
11246;DHT22;59870;50.106;8.580;2023-04-24T18:16:57;17.50;63.70
11246;DHT22;59870;50.106;8.580;2023-04-24T18:48:48;16.70;67.90
11246;DHT22;59870;50.106;8.580;2023-04-24T18:54:58;16.60;68.70
11246;DHT22;59870;50.106;8.580;2023-04-24T19:26:16;16.00;74.70
11246;DHT22;59870;50.106;8.580;2023-04-24T19:28:44;16.00;74.50
11246;DHT22;59870;50.106;8.580;2023-04-24T19:31:12;16.00;74.40
11246;DHT22;59870;50.106;8.580;2023-04-24T19:33:41;16.00;75.00
11246;DHT22;59870;50.106;8.580;2023-04-24T19:36:11;16.00;75.00
11246;DHT22;59870;50.106;8.580;2023-04-24T19:38:39;15.90;74.80
11246;DHT22;59870;50.106;8.580;2023-04-24T19:41:07;15.90;75.40
11246;DHT22;59870;50.106;8.580;2023-04-24T19:43:34;16.00;75.80
11246;DHT22;59870;50.106;8.580;2023-04-24T19:46:02;16.00;75.80
11246;DHT22;59870;50.106;8.580;2023-04-24T19:48:30;15.90;76.40
11246;DHT22;59870;50.106;8.580;2023-04-24T19:50:59;15.90;76.40
11246;DHT22;59870;50.106;8.580;2023-04-24T19:53:28;15.90;76.60
11246;DHT22;59870;50.106;8.580;2023-04-24T19:55:56;15.80;76.80
11246;DHT22;59870;50.106;8.580;2023-04-24T20:01:49;15.70;76.30
11246;DHT22;59870;50.106;8.580;2023-04-24T20:04:18;15.90;76.30
11246;DHT22;59870;50.106;8.580;2023-04-24T20:06:49;16.10;77.60
11246;DHT22;59870;50.106;8.580;2023-04-24T20:09:51;15.60;76.80
11246;DHT22;59870;50.106;8.580;2023-04-24T20:12:53;15.60;76.40
11246;DHT22;59870;50.106;8.580;2023-04-24T20:16:15;15.10;76.50
11246;DHT22;59870;50.106;8.580;2023-04-24T20:19:24;15.60;76.70
11246;DHT22;59870;50.106;8.580;2023-04-24T20:31:32;15.50;75.80
11246;DHT22;59870;50.106;8.580;2023-04-24T20:34:00;15.50;76.30
11246;DHT22;59870;50.106;8.580;2023-04-24T20:39:54;15.20;77.00
11246;DHT22;59870;50.106;8.580;2023-04-24T20:42:27;15.20;78.50
11246;DHT22;59870;50.106;8.580;2023-04-24T20:45:00;15.10;78.90
11246;DHT22;59870;50.106;8.580;2023-04-24T20:47:29;15.10;79.20
11246;DHT22;59870;50.106;8.580;2023-04-24T20:49:57;15.00;79.30
11246;DHT22;59870;50.106;8.580;2023-04-24T20:52:25;15.00;79.50
11246;DHT22;59870;50.106;8.580;2023-04-24T20:54:52;15.40;80.10
11246;DHT22;59870;50.106;8.580;2023-04-24T21:01:46;15.00;79.80
11246;DHT22;59870;50.106;8.580;2023-04-24T21:04:15;15.00;80.40
11246;DHT22;59870;50.106;8.580;2023-04-24T21:06:42;15.00;80.90
11246;DHT22;59870;50.106;8.580;2023-04-24T21:09:10;15.00;81.30
11246;DHT22;59870;50.106;8.580;2023-04-24T21:11:37;15.00;81.50
11246;DHT22;59870;50.106;8.580;2023-04-24T21:14:05;15.00;81.30
11246;DHT22;59870;50.106;8.580;2023-04-24T21:16:33;15.00;80.40
11246;DHT22;59870;50.106;8.580;2023-04-24T21:19:00;15.00;80.40
11246;DHT22;59870;50.106;8.580;2023-04-24T21:21:28;15.60;81.00
11246;DHT22;59870;50.106;8.580;2023-04-24T21:23:55;15.40;81.50
11246;DHT22;59870;50.106;8.580;2023-04-24T21:26:22;15.00;80.80
11246;DHT22;59870;50.106;8.580;2023-04-24T21:28:50;15.30;81.40
11246;DHT22;59870;50.106;8.580;2023-04-24T21:31:17;14.90;81.20
11246;DHT22;59870;50.106;8.580;2023-04-24T21:33:45;14.80;81.80
11246;DHT22;59870;50.106;8.580;2023-04-24T21:36:13;14.70;82.50
11246;DHT22;59870;50.106;8.580;2023-04-24T21:38:40;14.70;83.00
11246;DHT22;59870;50.106;8.580;2023-04-24T21:41:08;14.60;83.10
11246;DHT22;59870;50.106;8.580;2023-04-24T21:51:01;14.60;83.20
11246;DHT22;59870;50.106;8.580;2023-04-24T21:53:29;14.60;83.50
11246;DHT22;59870;50.106;8.580;2023-04-24T21:55:57;14.70;83.60